Time;durP1;ratioP1;P1;durP2;ratioP2;P2;SDS_P1;SDS_P2;PMS_P1;PMS_P2;Temp;Humidity;BMP_temperature;BMP_pressure;BME280_temperature;BME280_humidity;BME280_pressure;Samples;Min_cycle;Max_cycle;Signal;HPM_P1;HPM_P2
2021/12/16 05:50:03;;;;;;;25.02;12.35;;;;;;;3.96;89.70;99871.78;5597438;23;20062;-52
2021/12/16 05:52:28;;;;;;;25.70;12.13;;;;;;;4.09;88.71;99867.22;4824250;29;20038;-49
2021/12/16 05:54:54;;;;;;;24.40;12.38;;;;;;;4.19;88.65;99867.06;4823781;29;20376;-48
2021/12/16 05:57:19;;;;;;;23.70;12.38;;;;;;;4.16;88.46;99879.22;4827207;29;20034;-47
2021/12/16 05:59:44;;;;;;;24.48;12.13;;;;;;;4.23;88.32;99881.72;4826653;29;20038;-48
2021/12/16 06:02:10;;;;;;;20.92;11.18;;;;;;;4.11;88.73;99878.47;4827131;29;20575;-51
2021/12/16 06:04:35;;;;;;;24.33;11.32;;;;;;;4.22;87.92;99873.94;4844448;29;20026;-51
2021/12/16 06:07:01;;;;;;;25.13;11.95;;;;;;;4.12;87.77;99883.63;4845385;29;20443;-47
2021/12/16 06:09:26;;;;;;;20.80;11.07;;;;;;;3.97;88.79;99884.72;4844263;29;20030;-47
2021/12/16 06:11:53;;;;;;;26.05;12.77;;;;;;;4.04;88.79;99894.13;4837168;29;20045;-52
2021/12/16 06:27:36;;;;;;;20.70;9.48;;;;;;;4.58;87.07;99897.63;4833612;29;20475;-48
2021/12/16 06:30:07;;;;;;;20.38;10.38;;;;;;;4.70;86.62;99903.44;4843824;29;20053;-48
2021/12/16 06:32:33;;;;;;;23.43;11.30;;;;;;;4.74;86.66;99914.63;4840499;29;20038;-50
2021/12/16 06:34:58;;;;;;;19.85;10.23;;;;;;;4.50;86.60;99905.50;4825486;29;20507;-48
2021/12/16 06:37:23;;;;;;;22.75;10.38;;;;;;;4.49;86.89;99914.22;4840819;29;20030;-49
2021/12/16 06:39:49;;;;;;;23.83;12.20;;;;;;;4.59;86.90;99914.91;4844183;29;20068;-51
2021/12/16 06:42:15;;;;;;;22.80;11.65;;;;;;;4.42;87.33;99918.66;4843309;29;20026;-50
2021/12/16 06:44:53;;;;;;;22.52;11.30;;;;;;;4.43;86.22;99907.34;4843785;29;20108;-47
2021/12/16 06:47:23;;;;;;;22.23;11.38;;;;;;;4.23;87.59;99914.59;4843607;29;20034;-50
2021/12/16 06:49:51;;;;;;;20.60;10.80;;;;;;;4.47;87.07;99916.84;4842332;29;20081;-49
2021/12/16 06:52:20;;;;;;;23.80;11.25;;;;;;;4.33;86.75;99918.78;4842147;29;20478;-48
2021/12/16 06:55:05;;;;;;;26.27;12.50;;;;;;;4.55;86.21;99921.06;4841978;29;20513;-48
2021/12/16 07:00:10;;;;;;;23.88;12.18;;;;;;;4.32;87.66;99927.47;4834097;29;20041;-53
2021/12/16 07:05:37;;;;;;;23.27;12.32;;;;;;;4.55;86.84;99932.31;4841731;29;20125;-50
2021/12/16 07:08:04;;;;;;;26.05;12.38;;;;;;;4.49;87.70;99938.44;4841486;29;20038;-54
2021/12/16 07:10:29;;;;;;;21.77;11.80;;;;;;;4.69;86.57;99939.88;4826909;29;20045;-49
2021/12/16 07:12:55;;;;;;;25.20;12.98;;;;;;;4.50;86.85;99936.69;4841715;29;20142;-49
2021/12/16 07:15:24;;;;;;;22.55;12.40;;;;;;;4.35;87.36;99943.00;4841784;29;20041;-52
2021/12/16 07:17:49;;;;;;;22.63;12.07;;;;;;;4.39;87.29;99933.44;4841901;29;20448;-53
2021/12/16 07:20:16;;;;;;;24.80;13.07;;;;;;;4.26;88.21;99943.13;4840578;29;20045;-50
2021/12/16 07:22:41;;;;;;;24.35;12.80;;;;;;;4.26;87.86;99941.41;4840884;29;20095;-53
2021/12/16 07:25:07;;;;;;;25.33;12.73;;;;;;;4.00;89.34;99941.81;4840709;29;20558;-50
2021/12/16 07:27:34;;;;;;;23.35;11.80;;;;;;;4.32;88.46;99937.84;4841469;29;20042;-51
2021/12/16 07:30:00;;;;;;;22.98;11.05;;;;;;;4.35;87.91;99930.03;4840469;29;20478;-52
2021/12/16 07:32:25;;;;;;;24.45;12.48;;;;;;;4.22;88.31;99929.34;4840509;29;20040;-51
2021/12/16 07:34:50;;;;;;;21.25;10.98;;;;;;;4.38;87.68;99937.78;4839872;29;20029;-54
2021/12/16 07:37:16;;;;;;;24.75;11.45;;;;;;;4.34;87.52;99925.72;4841232;29;20114;-53
2021/12/16 07:39:43;;;;;;;22.63;11.77;;;;;;;4.47;87.18;99934.16;4840701;29;20038;-51
2021/12/16 07:42:12;;;;;;;25.83;12.18;;;;;;;4.41;86.85;99937.72;4840369;29;20417;-52
2021/12/16 07:44:37;;;;;;;23.15;11.80;;;;;;;4.36;87.39;99939.53;4844365;29;20036;-54
2021/12/16 07:47:05;;;;;;;23.67;11.60;;;;;;;4.37;86.55;99940.38;4843134;29;20042;-52
2021/12/16 07:49:33;;;;;;;23.75;11.30;;;;;;;4.47;86.86;99948.03;4840578;29;20096;-51
2021/12/16 07:51:59;;;;;;;23.20;11.70;;;;;;;4.41;86.41;99937.72;4840848;29;20029;-53
2021/12/16 07:54:25;;;;;;;24.30;11.73;;;;;;;4.26;87.68;99943.13;4840739;29;20086;-53
2021/12/16 07:56:51;;;;;;;24.35;11.15;;;;;;;4.37;87.12;99951.66;4840892;29;20401;-55
2021/12/16 07:59:17;;;;;;;25.95;12.45;;;;;;;4.54;86.75;99961.75;4843359;29;20506;-53
2021/12/16 08:01:42;;;;;;;24.25;11.93;;;;;;;4.24;87.40;99944.91;4844894;29;20038;-53
2021/12/16 08:04:17;;;;;;;24.15;11.50;;;;;;;4.33;87.16;99959.50;4844529;29;20045;-55
2021/12/16 08:06:42;;;;;;;24.42;11.93;;;;;;;4.26;87.91;99976.91;4845842;29;20058;-54
2021/12/16 08:09:08;;;;;;;23.67;11.05;;;;;;;4.37;86.77;99979.34;4844408;29;20049;-53
2021/12/16 08:11:38;;;;;;;21.77;10.70;;;;;;;4.58;85.87;99986.81;4845673;29;20057;-53
2021/12/16 08:14:04;;;;;;;28.65;11.65;;;;;;;4.69;85.70;99990.09;4845478;29;20050;-54
2021/12/16 08:16:32;;;;;;;23.83;11.32;;;;;;;4.59;85.77;99993.72;4846691;29;20529;-52
2021/12/16 08:18:58;;;;;;;23.58;11.35;;;;;;;4.66;85.30;99999.69;4845863;29;20038;-52
2021/12/16 08:21:27;;;;;;;24.17;11.95;;;;;;;4.55;85.23;99999.88;4845424;29;20029;-54
2021/12/16 08:23:53;;;;;;;24.55;12.43;;;;;;;4.52;85.83;100007.72;4845338;29;20022;-52
2021/12/16 08:26:19;;;;;;;24.33;11.68;;;;;;;4.56;85.91;100005.91;4846014;29;20030;-54
2021/12/16 08:28:44;;;;;;;24.40;11.80;;;;;;;4.67;85.03;100001.41;4850461;29;20041;-49
2021/12/16 08:31:10;;;;;;;26.48;12.73;;;;;;;4.59;85.95;100005.88;4856605;29;20021;-50
2021/12/16 08:33:37;;;;;;;23.65;11.63;;;;;;;4.65;85.40;100016.19;4857083;29;20117;-49
2021/12/16 08:36:04;;;;;;;25.20;12.02;;;;;;;4.84;84.91;100017.59;4848939;29;20506;-53
2021/12/16 08:38:29;;;;;;;24.70;12.23;;;;;;;4.92;84.27;100027.84;4858352;29;20038;-51
2021/12/16 08:40:58;;;;;;;24.73;12.38;;;;;;;4.93;83.93;100014.84;4864131;29;20025;-49
2021/12/16 08:43:23;;;;;;;23.88;11.75;;;;;;;5.14;83.56;100025.75;4863199;29;20041;-51
2021/12/16 08:45:48;;;;;;;23.60;11.60;;;;;;;5.17;83.75;100029.16;4856795;29;20036;-52
2021/12/16 08:48:14;;;;;;;26.08;12.57;;;;;;;5.05;83.76;100018.97;4845074;29;20506;-50
2021/12/16 08:50:42;;;;;;;25.00;13.10;;;;;;;4.77;85.01;100031.56;4851264;29;20417;-49
2021/12/16 08:53:08;;;;;;;26.55;13.60;;;;;;;4.85;84.69;100021.91;4858160;29;20513;-50
2021/12/16 08:55:35;;;;;;;28.77;15.30;;;;;;;5.00;84.10;100026.84;4846999;29;20038;-54
2021/12/16 08:58:00;;;;;;;29.40;15.80;;;;;;;4.94;84.50;100029.56;4843642;29;20034;-53
2021/12/16 09:00:28;;;;;;;29.77;15.27;;;;;;;5.12;83.60;100028.38;4843575;29;20041;-55
2021/12/16 09:02:53;;;;;;;27.63;12.68;;;;;;;4.96;84.56;100040.78;4843271;29;20482;-51
2021/12/16 09:05:20;;;;;;;24.90;11.18;;;;;;;4.89;84.82;100030.53;4844334;29;20041;-53
2021/12/16 09:07:48;;;;;;;24.35;11.80;;;;;;;4.98;84.38;100044.22;4843615;29;20030;-51
2021/12/16 09:10:14;;;;;;;33.42;18.00;;;;;;;5.14;83.42;100044.81;4841745;29;20032;-54
2021/12/16 09:13:02;;;;;;;32.60;16.90;;;;;;;5.04;83.96;100042.41;4843152;29;20041;-54
2021/12/16 09:15:29;;;;;;;29.05;15.75;;;;;;;4.92;83.95;100046.94;4843291;29;20018;-54
2021/12/16 09:17:55;;;;;;;25.23;12.68;;;;;;;5.10;83.77;100037.97;4843363;29;20058;-53
2021/12/16 09:20:20;;;;;;;26.02;12.82;;;;;;;5.19;83.00;100036.94;4843378;29;20140;-53
2021/12/16 09:22:46;;;;;;;36.58;19.00;;;;;;;5.21;82.89;100046.44;4843917;29;20367;-50
2021/12/16 09:25:12;;;;;;;57.45;35.78;;;;;;;5.34;82.56;100056.63;4841794;29;20022;-55
2021/12/16 09:27:38;;;;;;;26.05;13.23;;;;;;;5.23;83.48;100059.44;4844303;29;20395;-52
2021/12/16 09:30:06;;;;;;;31.60;17.63;;;;;;;5.30;82.77;100058.44;4843836;29;20616;-53
2021/12/16 09:32:32;;;;;;;26.08;13.45;;;;;;;5.47;82.60;100064.19;4857546;29;20026;-53
2021/12/16 09:34:58;;;;;;;24.67;12.63;;;;;;;5.46;82.06;100061.59;4842893;29;20038;-55
2021/12/16 09:37:23;;;;;;;26.17;13.07;;;;;;;5.43;82.59;100067.72;4841922;29;20122;-52
2021/12/16 09:39:49;;;;;;;26.48;14.50;;;;;;;5.46;81.86;100077.22;4843066;29;20605;-49
2021/12/16 09:42:14;;;;;;;26.05;13.50;;;;;;;5.29;83.00;100069.72;4843604;29;20034;-53
2021/12/16 09:44:39;;;;;;;28.80;14.68;;;;;;;5.40;83.04;100067.78;4842499;29;20038;-54
2021/12/16 09:47:07;;;;;;;28.05;14.43;;;;;;;5.24;82.76;100068.94;4843146;29;20109;-52
2021/12/16 09:49:32;;;;;;;25.25;13.07;;;;;;;5.47;81.55;100064.19;4842128;29;20026;-52
2021/12/16 09:51:59;;;;;;;23.90;11.82;;;;;;;5.27;82.97;100062.84;4843883;29;20033;-54
2021/12/16 09:54:27;;;;;;;26.13;14.10;;;;;;;5.27;82.43;100068.03;4842499;29;20554;-52
2021/12/16 09:56:53;;;;;;;25.00;13.85;;;;;;;5.30;82.88;100068.84;4842644;29;20116;-53
2021/12/16 09:59:19;;;;;;;23.25;12.73;;;;;;;5.60;81.37;100077.81;4841352;29;20109;-53
2021/12/16 10:01:47;;;;;;;26.90;15.88;;;;;;;5.21;83.04;100067.25;4842310;29;20033;-52
2021/12/16 10:04:15;;;;;;;31.05;18.52;;;;;;;5.51;82.85;100074.56;4842151;29;20022;-53
2021/12/16 10:06:41;;;;;;;24.77;12.77;;;;;;;5.63;81.81;100074.31;4842545;29;20474;-54
2021/12/16 10:09:08;;;;;;;24.42;12.20;;;;;;;5.42;82.42;100071.22;4841212;29;20494;-53
2021/12/16 10:11:34;;;;;;;24.75;12.55;;;;;;;5.54;82.00;100074.47;4825974;29;20026;-51
2021/12/16 10:14:20;;;;;;;25.00;12.43;;;;;;;5.68;81.91;100077.69;4840593;29;20044;-52
2021/12/16 10:19:54;;;;;;;24.67;11.73;;;;;;;5.59;82.04;100062.25;4821178;29;20038;-52
2021/12/16 10:22:33;;;;;;;23.63;11.73;;;;;;;5.53;81.60;100064.97;4821092;29;20061;-50
2021/12/16 10:25:30;;;;;;;21.92;11.30;;;;;;;5.52;82.45;100064.09;4821372;29;20030;-51
2021/12/16 10:27:58;;;;;;;23.52;11.82;;;;;;;5.31;83.06;100054.94;4821702;29;20046;-52
2021/12/16 10:30:24;;;;;;;27.27;12.90;;;;;;;5.39;83.59;100049.59;4821465;29;20042;-53
2021/12/16 10:32:50;;;;;;;22.50;12.30;;;;;;;5.40;83.39;100057.38;4821187;29;20174;-50
2021/12/16 10:35:20;;;;;;;23.70;11.75;;;;;;;5.51;82.87;100054.59;4806255;29;20509;-53
2021/12/16 10:37:49;;;;;;;24.38;12.27;;;;;;;5.64;82.83;100058.69;4821680;29;20042;-54
2021/12/16 10:40:51;;;;;;;23.45;12.27;;;;;;;5.86;80.86;100056.50;4824215;29;20030;-51
2021/12/16 10:43:23;;;;;;;23.00;12.53;;;;;;;5.75;81.77;100053.25;4821047;29;20039;-49
2021/12/16 10:45:51;;;;;;;26.23;13.27;;;;;;;5.73;82.35;100055.03;4825436;29;20282;-53
2021/12/16 10:48:21;;;;;;;26.45;12.70;;;;;;;5.75;81.65;100048.06;4807699;29;20042;-54
2021/12/16 10:50:46;;;;;;;28.60;13.73;;;;;;;5.84;81.64;100054.81;4831863;29;20046;-51
2021/12/16 10:53:12;;;;;;;24.73;12.48;;;;;;;6.13;80.35;100046.44;4841151;29;20093;-52
2021/12/16 10:55:57;;;;;;;23.92;12.23;;;;;;;6.33;79.63;100046.00;4841824;29;20025;-49
2021/12/16 10:59:15;;;;;;;24.42;12.45;;;;;;;6.30;79.62;100046.94;4843844;29;20042;-52
2021/12/16 11:01:56;;;;;;;29.02;13.95;;;;;;;5.88;81.74;100044.31;4805787;29;20077;-51
2021/12/16 11:04:30;;;;;;;26.35;13.23;;;;;;;5.87;81.81;100037.38;4788540;29;20069;-53
2021/12/16 11:07:19;;;;;;;27.42;12.55;;;;;;;5.69;82.39;100038.59;4805442;29;20043;-51
2021/12/16 11:09:51;;;;;;;29.27;13.82;;;;;;;5.80;81.33;100034.94;4791207;29;20083;-49
2021/12/16 11:12:29;;;;;;;27.30;13.10;;;;;;;6.02;81.47;100024.94;4790337;29;20038;-48
2021/12/16 11:15:11;;;;;;;26.77;13.30;;;;;;;6.15;80.64;100027.25;4803765;29;20023;-52
2021/12/16 11:17:45;;;;;;;29.67;14.50;;;;;;;6.00;81.50;100017.19;4803575;29;20039;-48
2021/12/16 11:20:15;;;;;;;28.48;14.13;;;;;;;6.19;81.64;100015.03;4802659;29;20569;-48
2021/12/16 11:22:40;;;;;;;29.33;15.07;;;;;;;6.14;81.35;99998.66;4802716;29;20135;-48
2021/12/16 11:25:15;;;;;;;27.73;13.98;;;;;;;6.37;79.61;100009.44;4802567;29;20035;-48
2021/12/16 11:27:42;;;;;;;27.80;14.30;;;;;;;6.46;80.49;100004.88;4803160;29;20502;-49
2021/12/16 11:30:38;;;;;;;31.02;14.45;;;;;;;6.51;79.69;99998.69;4802677;29;20147;-48
2021/12/16 11:33:42;;;;;;;30.80;13.88;;;;;;;6.54;79.01;99996.00;4784136;30;20186;-48
2021/12/16 11:36:26;;;;;;;26.95;13.55;;;;;;;6.81;79.13;99996.22;4769711;29;20038;-49
2021/12/16 11:38:59;;;;;;;26.95;13.63;;;;;;;6.95;77.08;99996.75;4803149;29;20110;-50
2021/12/16 11:41:35;;;;;;;29.55;14.05;;;;;;;7.30;76.14;100006.25;4787579;29;20043;-48
2021/12/16 11:44:18;;;;;;;28.63;14.40;;;;;;;7.10;76.82;100006.78;4785735;29;20039;-47
2021/12/16 11:46:48;;;;;;;30.17;14.00;;;;;;;7.44;75.61;100002.44;4795263;29;20119;-48
2021/12/16 11:49:21;;;;;;;26.83;12.32;;;;;;;7.46;75.80;99998.00;4801698;29;20043;-48
2021/12/16 11:52:15;;;;;;;27.42;13.57;;;;;;;7.19;77.02;99999.59;4783880;29;20041;-50
2021/12/16 11:54:42;;;;;;;27.35;13.55;;;;;;;6.74;78.03;99995.50;4786774;29;20054;-52
2021/12/16 11:57:13;;;;;;;28.05;14.23;;;;;;;6.90;78.23;100002.06;4786253;30;20511;-49
2021/12/16 11:59:49;;;;;;;25.95;13.52;;;;;;;7.01;77.85;100007.00;4783677;30;20044;-54
2021/12/16 12:02:23;;;;;;;24.73;13.60;;;;;;;7.07;78.00;100008.59;4784043;30;20078;-52
2021/12/16 12:04:48;;;;;;;26.80;13.98;;;;;;;6.86;78.70;100005.66;4783362;30;20420;-52
2021/12/16 12:07:14;;;;;;;25.98;13.73;;;;;;;6.82;78.59;100006.63;4784138;29;20603;-50
2021/12/16 12:09:49;;;;;;;26.85;13.93;;;;;;;6.69;78.88;99996.53;4808478;29;20507;-53
2021/12/16 12:12:15;;;;;;;28.73;13.77;;;;;;;6.95;78.82;100003.69;4840108;29;20034;-52
2021/12/16 12:14:41;;;;;;;26.33;13.57;;;;;;;7.05;78.02;100002.56;4839864;29;20033;-53
2021/12/16 12:17:12;;;;;;;24.73;12.48;;;;;;;7.33;76.80;100010.56;4855263;29;20025;-50
2021/12/16 12:19:51;;;;;;;25.50;12.75;;;;;;;7.53;75.85;100023.03;4839525;29;20404;-49
2021/12/16 12:22:26;;;;;;;25.73;13.60;;;;;;;7.33;76.95;100011.41;4840887;29;20054;-53
2021/12/16 12:24:51;;;;;;;23.90;12.50;;;;;;;7.21;76.61;100016.94;4840174;29;20106;-50
2021/12/16 12:27:22;;;;;;;27.08;13.23;;;;;;;7.18;76.45;100022.22;4828380;29;20440;-51
2021/12/16 12:29:58;;;;;;;25.98;13.63;;;;;;;7.02;78.00;100015.69;4841309;29;20034;-53
2021/12/16 12:32:35;;;;;;;28.23;13.35;;;;;;;6.71;79.33;100016.47;4853703;29;20030;-54
2021/12/16 12:35:06;;;;;;;27.33;14.40;;;;;;;6.69;79.41;100020.00;4839507;29;20494;-55
2021/12/16 12:37:34;;;;;;;29.17;15.13;;;;;;;6.96;79.46;100014.09;4849315;29;20031;-53
2021/12/16 12:40:07;;;;;;;25.60;13.65;;;;;;;7.35;77.04;100017.44;4822172;29;20045;-55
2021/12/16 12:42:33;;;;;;;28.33;13.93;;;;;;;7.00;77.94;100009.66;4828727;29;20034;-54
2021/12/16 12:44:58;;;;;;;27.90;14.32;;;;;;;7.04;78.96;100006.94;4824157;29;20030;-55
2021/12/16 12:47:26;;;;;;;27.23;13.15;;;;;;;7.06;78.74;100012.13;4840558;29;20034;-53
2021/12/16 12:49:52;;;;;;;28.95;15.60;;;;;;;7.13;77.60;100008.47;4839801;29;20069;-52
2021/12/16 12:52:20;;;;;;;30.83;15.82;;;;;;;7.15;77.77;100006.66;4832787;29;20104;-53
2021/12/16 12:54:57;;;;;;;29.23;15.13;;;;;;;7.33;78.00;100000.97;4843794;29;20630;-54
2021/12/16 12:57:32;;;;;;;26.13;15.15;;;;;;;7.59;76.04;99996.78;4859365;29;20037;-50
2021/12/16 12:59:58;;;;;;;30.02;15.80;;;;;;;7.67;76.07;99999.16;4844828;29;20030;-53
2021/12/16 13:02:32;;;;;;;30.75;16.88;;;;;;;7.65;76.08;100006.19;4845923;29;20033;-54
2021/12/16 13:05:10;;;;;;;30.33;14.38;;;;;;;7.97;74.54;100013.09;4843949;29;20018;-52
2021/12/16 13:07:38;;;;;;;27.48;14.50;;;;;;;7.52;76.59;100003.06;4844124;29;20034;-55
2021/12/16 13:10:11;;;;;;;26.67;14.80;;;;;;;7.45;77.97;100010.22;4843408;29;20022;-54
2021/12/16 13:12:50;;;;;;;26.55;14.30;;;;;;;7.72;76.27;100013.81;4844452;29;20073;-49
2021/12/16 13:23:33;;;;;;;24.92;14.35;;;;;;;7.45;77.31;100022.41;4827041;29;20108;-53
2021/12/16 13:26:34;;;;;;;26.55;14.02;;;;;;;7.70;76.11;100023.44;4843383;29;20044;-53
2021/12/16 13:29:10;;;;;;;27.50;14.95;;;;;;;7.71;76.82;100027.78;4855279;29;20037;-54
2021/12/16 13:32:11;;;;;;;30.02;15.57;;;;;;;7.72;76.43;100024.25;4844791;29;20132;-51
2021/12/16 13:35:21;;;;;;;28.27;15.05;;;;;;;7.78;76.42;100028.47;4855759;29;20393;-50
2021/12/16 13:37:48;;;;;;;26.80;13.35;;;;;;;7.78;75.99;100024.09;4844686;29;20041;-54
2021/12/16 13:40:18;;;;;;;27.75;14.80;;;;;;;7.77;75.86;100027.59;4858212;29;20394;-50
2021/12/16 13:42:56;;;;;;;25.73;13.63;;;;;;;7.67;76.27;100018.28;4858237;29;20118;-51
2021/12/16 13:45:34;;;;;;;30.10;13.93;;;;;;;7.76;75.83;100023.28;4858381;29;20104;-51
2021/12/16 14:01:53;;;;;;;24.35;12.43;;;;;;;7.83;76.07;100022.19;4841681;29;20049;-53
2021/12/16 14:10:13;;;;;;;25.45;13.13;;;;;;;7.35;76.86;100020.03;4842888;29;20036;-51
2021/12/16 14:15:57;;;;;;;23.15;12.10;;;;;;;7.17;78.31;100023.13;4834474;29;20043;-53
2021/12/16 14:24:15;;;;;;;27.23;13.70;;;;;;;7.05;78.17;100023.44;4842246;29;20041;-54
2021/12/16 14:27:02;;;;;;;25.35;12.75;;;;;;;7.18;77.54;100032.66;4856530;29;20435;-53
2021/12/16 14:35:03;;;;;;;23.13;12.77;;;;;;;7.33;77.29;100053.16;4843981;29;20121;-55
2021/12/16 14:38:04;;;;;;;23.70;12.90;;;;;;;7.02;77.76;100047.88;4856262;29;20050;-56
2021/12/16 14:41:07;;;;;;;24.90;12.95;;;;;;;6.87;78.68;100033.44;4849390;29;20524;-56
2021/12/16 14:43:19;;;;;;;24.92;13.25;;;;;;;7.20;78.36;100032.66;4848035;29;20046;-56
2021/12/16 14:45:54;;;;;;;26.25;13.50;;;;;;;7.09;77.89;100032.94;4843467;29;20026;-52
2021/12/16 14:48:27;;;;;;;26.00;14.15;;;;;;;7.02;78.83;100033.94;4841664;29;20498;-55
2021/12/16 14:50:56;;;;;;;24.42;13.65;;;;;;;7.01;78.60;100051.34;4854762;29;20036;-54
2021/12/16 14:53:37;;;;;;;27.02;14.43;;;;;;;7.02;78.66;100067.88;4841947;29;20041;-52
2021/12/16 14:56:11;;;;;;;26.08;13.32;;;;;;;7.09;78.97;100061.63;4845820;29;20025;-54
2021/12/16 14:58:36;;;;;;;28.10;14.20;;;;;;;7.08;78.57;100062.50;4842067;29;20030;-52
2021/12/16 15:01:14;;;;;;;25.30;12.68;;;;;;;7.24;77.67;100063.84;4839635;29;20558;-52
2021/12/16 15:03:41;;;;;;;25.83;13.55;;;;;;;7.24;78.28;100063.00;4854591;29;20033;-52
2021/12/16 15:06:09;;;;;;;24.90;14.43;;;;;;;7.21;78.42;100076.09;4840469;29;20026;-55
2021/12/16 15:08:43;;;;;;;27.25;13.60;;;;;;;7.09;78.77;100072.91;4847862;29;20038;-51
2021/12/16 15:11:11;;;;;;;28.30;14.43;;;;;;;6.94;79.45;100075.88;4863037;29;20041;-52
2021/12/16 15:13:44;;;;;;;28.63;14.65;;;;;;;6.73;80.55;100071.19;4842809;29;20410;-55
2021/12/16 15:40:58;;;;;;;26.52;14.43;;;;;;;6.97;80.66;100064.53;4843714;29;20049;-53
2021/12/16 15:43:31;;;;;;;28.58;16.15;;;;;;;6.80;81.00;100072.75;4843895;29;20029;-50
2021/12/16 15:45:56;;;;;;;29.17;17.80;;;;;;;6.78;80.22;100069.31;4829453;29;20380;-49
2021/12/16 15:48:24;;;;;;;26.95;15.40;;;;;;;6.63;81.31;100075.75;4845708;29;20045;-53
2021/12/16 15:50:55;;;;;;;27.85;14.75;;;;;;;6.74;81.43;100067.66;4839310;29;20638;-55
2021/12/16 15:53:26;;;;;;;42.20;22.57;;;;;;;6.49;82.21;100075.19;4839523;29;20041;-52
2021/12/16 15:55:59;;;;;;;69.60;29.90;;;;;;;6.27;82.99;100067.84;4840741;29;20026;-50
2021/12/16 15:58:30;;;;;;;123.93;46.30;;;;;;;6.36;83.13;100059.81;4840737;29;20550;-53
2021/12/16 16:00:59;;;;;;;44.90;22.75;;;;;;;6.37;82.62;100068.53;4841565;29;20030;-54
2021/12/16 16:03:25;;;;;;;67.45;31.80;;;;;;;6.33;83.15;100070.34;4843984;29;20034;-51
2021/12/16 16:05:53;;;;;;;35.03;17.85;;;;;;;6.54;82.32;100076.81;4845743;29;20041;-49
2021/12/16 16:08:19;;;;;;;24.80;13.57;;;;;;;6.72;81.45;100085.13;4842917;29;20034;-55
2021/12/16 16:10:46;;;;;;;24.73;13.75;;;;;;;6.68;82.14;100086.09;4839834;29;20497;-55
2021/12/16 16:13:24;;;;;;;26.58;14.45;;;;;;;6.60;82.34;100081.03;4841822;29;20044;-57
2021/12/16 16:15:50;;;;;;;134.25;60.97;;;;;;;6.50;81.93;100071.69;4840953;29;20022;-57
2021/12/16 16:20:53;;;;;;;50.10;26.05;;;;;;;6.31;83.15;100079.06;4845098;29;20033;-51
2021/12/16 16:23:18;;;;;;;35.67;19.13;;;;;;;6.40;82.32;100084.94;4844012;29;20030;-55
2021/12/16 16:25:44;;;;;;;108.60;59.50;;;;;;;6.40;82.89;100095.38;4844393;29;20022;-53
2021/12/16 16:28:11;;;;;;;40.28;23.42;;;;;;;6.57;81.37;100088.91;4848596;29;20079;-51
2021/12/16 16:30:38;;;;;;;29.27;16.08;;;;;;;6.65;81.11;100094.81;4847737;29;20034;-55
2021/12/16 16:33:17;;;;;;;26.13;14.15;;;;;;;6.60;81.78;100088.84;4844613;29;20034;-54
2021/12/16 16:36:00;;;;;;;73.53;39.08;;;;;;;6.44;82.43;100095.31;4829312;29;20030;-52
2021/12/16 16:38:52;;;;;;;75.28;37.65;;;;;;;6.67;81.44;100098.25;4843666;29;20034;-53
2021/12/16 16:41:19;;;;;;;40.08;20.67;;;;;;;6.78;80.57;100098.88;4842551;29;20534;-52
2021/12/16 16:43:49;;;;;;;31.80;17.08;;;;;;;6.74;80.53;100089.38;4844199;29;20042;-54
2021/12/16 16:46:30;;;;;;;28.85;16.15;;;;;;;6.63;80.54;100102.66;4844854;29;20128;-54
2021/12/16 16:51:35;;;;;;;33.10;21.52;;;;;;;6.80;79.75;100098.81;4843819;29;20033;-54
2021/12/16 16:54:05;;;;;;;27.45;14.95;;;;;;;6.73;80.83;100103.31;4845105;29;20410;-54
2021/12/16 16:56:49;;;;;;;34.80;24.48;;;;;;;6.86;79.76;100109.97;4846160;29;20063;-53
2021/12/16 16:59:33;;;;;;;27.83;16.80;;;;;;;6.79;80.75;100111.03;4844056;29;20109;-55
2021/12/16 17:02:00;;;;;;;29.52;17.85;;;;;;;6.52;81.76;100102.06;4830187;29;20505;-50
2021/12/16 17:04:27;;;;;;;31.20;16.23;;;;;;;6.57;81.79;100102.84;4844489;29;20057;-54
2021/12/16 17:06:55;;;;;;;54.25;35.70;;;;;;;6.32;82.79;100105.09;4845107;29;20045;-52
2021/12/16 17:09:21;;;;;;;58.55;38.05;;;;;;;6.27;83.52;100098.28;4858987;29;20613;-53
2021/12/16 17:11:48;;;;;;;40.40;26.13;;;;;;;6.17;83.50;100102.81;4859152;29;20030;-53
2021/12/16 17:14:19;;;;;;;52.42;31.88;;;;;;;6.04;84.47;100107.41;4844973;29;20026;-55
2021/12/16 17:19:36;;;;;;;46.92;28.05;;;;;;;6.03;84.44;100102.22;4844257;29;20098;-52
2021/12/16 17:22:03;;;;;;;46.78;27.88;;;;;;;6.15;83.39;100101.97;4845352;29;20439;-54
2021/12/16 17:24:30;;;;;;;37.17;20.98;;;;;;;6.27;82.99;100099.13;4845066;29;20026;-52
2021/12/16 17:27:04;;;;;;;54.60;30.77;;;;;;;6.06;84.34;100087.41;4844793;29;20538;-52
2021/12/16 17:29:32;;;;;;;79.50;39.13;;;;;;;5.99;84.46;100091.03;4844109;29;20497;-50
2021/12/16 17:32:12;;;;;;;53.25;32.35;;;;;;;6.22;83.36;100093.13;4858704;29;20026;-53
2021/12/16 17:34:40;;;;;;;41.05;25.85;;;;;;;6.16;83.59;100096.75;4844734;29;20175;-55
2021/12/16 17:37:05;;;;;;;42.13;25.92;;;;;;;6.23;83.28;100109.63;4844416;29;20059;-54
2021/12/16 17:39:34;;;;;;;37.42;21.17;;;;;;;6.26;83.19;100104.34;4843779;29;20053;-54
2021/12/16 17:42:20;;;;;;;32.03;19.13;;;;;;;6.22;82.62;100113.13;4843473;29;20026;-53
2021/12/16 17:44:47;;;;;;;42.38;23.60;;;;;;;6.11;83.20;100111.59;4844994;29;20029;-55
2021/12/16 17:47:18;;;;;;;31.40;16.95;;;;;;;6.01;84.04;100112.66;4846815;29;20042;-55
2021/12/16 17:49:44;;;;;;;35.88;18.98;;;;;;;6.03;84.13;100105.69;4847199;29;20034;-53
2021/12/16 17:52:21;;;;;;;37.25;20.08;;;;;;;6.12;83.08;100089.00;4844772;29;20064;-53
2021/12/16 17:54:48;;;;;;;31.92;16.92;;;;;;;6.15;83.62;100104.56;4840253;29;20059;-55
2021/12/16 17:57:31;;;;;;;35.00;17.13;;;;;;;6.17;83.59;100110.63;4843090;29;20513;-54
2021/12/16 17:59:57;;;;;;;30.63;17.92;;;;;;;5.91;84.22;100109.34;4842931;29;20034;-54
2021/12/16 18:02:22;;;;;;;29.90;17.20;;;;;;;5.89;84.45;100110.28;4845410;29;20390;-51
2021/12/16 18:04:50;;;;;;;30.25;17.15;;;;;;;5.99;84.20;100103.16;4848708;29;20025;-53
2021/12/16 18:07:15;;;;;;;53.75;36.67;;;;;;;6.04;84.24;100096.13;4848913;29;20040;-52
2021/12/16 18:09:42;;;;;;;34.58;20.30;;;;;;;6.04;83.60;100096.13;4848468;29;20034;-53
2021/12/16 18:12:21;;;;;;;36.25;21.40;;;;;;;6.09;84.32;100096.88;4850393;29;20030;-54
2021/12/16 18:14:56;;;;;;;32.80;17.50;;;;;;;6.09;84.01;100092.56;4841398;29;20029;-54
2021/12/16 18:17:33;;;;;;;33.65;17.25;;;;;;;6.05;84.13;100092.63;4844834;29;20037;-53
2021/12/16 18:20:04;;;;;;;31.58;17.75;;;;;;;6.22;83.57;100106.16;4844657;29;20443;-55
2021/12/16 18:22:33;;;;;;;31.88;17.13;;;;;;;6.12;84.27;100107.25;4844012;29;20026;-54
2021/12/16 18:25:26;;;;;;;29.92;16.55;;;;;;;6.21;83.91;100103.59;4841618;29;20026;-51
2021/12/16 18:27:58;;;;;;;28.27;16.02;;;;;;;6.10;83.68;100102.06;4841328;29;20041;-51
2021/12/16 18:30:33;;;;;;;31.42;17.13;;;;;;;5.98;84.49;100106.66;4837976;29;20057;-54
2021/12/16 18:33:00;;;;;;;29.90;15.73;;;;;;;5.90;84.52;100102.44;4833730;29;20055;-53
2021/12/16 18:35:28;;;;;;;33.85;18.45;;;;;;;5.96;84.19;100108.47;4842131;29;20028;-50
2021/12/16 18:37:53;;;;;;;32.65;18.73;;;;;;;6.11;83.98;100109.00;4843224;29;20042;-51
2021/12/16 18:40:20;;;;;;;56.55;28.25;;;;;;;6.21;83.99;100112.28;4843573;29;20044;-49
2021/12/16 18:42:45;;;;;;;61.72;29.92;;;;;;;6.33;82.87;100113.75;4842702;29;20022;-49
2021/12/16 18:45:14;;;;;;;46.88;23.85;;;;;;;6.26;83.29;100118.25;4844272;29;20040;-52
2021/12/16 18:50:44;;;;;;;42.95;21.85;;;;;;;6.23;83.27;100113.13;4844378;29;20466;-52
2021/12/16 18:55:56;;;;;;;38.80;20.90;;;;;;;6.36;82.90;100108.47;4843273;29;20036;-50
2021/12/16 18:58:22;;;;;;;50.88;30.40;;;;;;;6.41;82.34;100107.50;4837465;29;20049;-52
2021/12/16 19:00:54;;;;;;;61.35;30.10;;;;;;;6.50;82.37;100105.59;4825558;29;20026;-52
2021/12/16 19:03:20;;;;;;;37.60;21.63;;;;;;;6.59;82.33;100115.81;4825832;29;20022;-51
2021/12/16 19:05:45;;;;;;;38.67;22.27;;;;;;;6.55;81.91;100127.22;4826452;29;20027;-55
2021/12/16 19:08:11;;;;;;;33.85;18.52;;;;;;;6.51;81.99;100122.97;4838361;29;20119;-50